sensor_id;sensor_type;location;lat;lon;timestamp;pressure;altitude;pressure_sealevel;temperature;humidity
32875;BME280;40468;42.128;24.750;2023-08-24T00:01:17;99596.41;;;27.16;39.33
32875;BME280;40468;42.128;24.750;2023-08-24T00:02:48;99600.06;;;27.15;39.12
32875;BME280;40468;42.128;24.750;2023-08-24T00:04:19;99598.25;;;27.15;39.56
32875;BME280;40468;42.128;24.750;2023-08-24T00:05:50;99595.03;;;27.12;39.36
32875;BME280;40468;42.128;24.750;2023-08-24T00:07:23;99590.25;;;27.07;39.67
32875;BME280;40468;42.128;24.750;2023-08-24T00:08:54;99596.59;;;27.06;39.29
32875;BME280;40468;42.128;24.750;2023-08-24T00:10:25;99594.78;;;27.07;39.34
32875;BME280;40468;42.128;24.750;2023-08-24T00:11:57;99602.13;;;27.05;39.60
32875;BME280;40468;42.128;24.750;2023-08-24T00:13:28;99605.84;;;27.04;39.43
32875;BME280;40468;42.128;24.750;2023-08-24T00:14:59;99600.84;;;27.00;39.44
32875;BME280;40468;42.128;24.750;2023-08-24T00:16:30;99592.19;;;26.98;39.41
32875;BME280;40468;42.128;24.750;2023-08-24T00:18:02;99594.38;;;26.95;39.73
32875;BME280;40468;42.128;24.750;2023-08-24T00:19:32;99597.59;;;26.90;39.58
32875;BME280;40468;42.128;24.750;2023-08-24T00:21:04;99596.28;;;26.86;39.80
32875;BME280;40468;42.128;24.750;2023-08-24T00:22:36;99599.31;;;26.83;40.15
32875;BME280;40468;42.128;24.750;2023-08-24T00:24:07;99591.31;;;26.83;39.73
32875;BME280;40468;42.128;24.750;2023-08-24T00:25:38;99596.44;;;26.85;39.62
32875;BME280;40468;42.128;24.750;2023-08-24T00:27:11;99591.56;;;26.88;39.57
32875;BME280;40468;42.128;24.750;2023-08-24T00:28:43;99593.88;;;26.91;39.47
32875;BME280;40468;42.128;24.750;2023-08-24T00:30:15;99591.22;;;26.91;39.54
32875;BME280;40468;42.128;24.750;2023-08-24T00:31:46;99589.56;;;26.90;39.57
32875;BME280;40468;42.128;24.750;2023-08-24T00:33:18;99594.09;;;26.90;39.80
32875;BME280;40468;42.128;24.750;2023-08-24T00:34:49;99591.56;;;26.88;39.89
32875;BME280;40468;42.128;24.750;2023-08-24T00:36:21;99591.41;;;26.90;39.49
32875;BME280;40468;42.128;24.750;2023-08-24T00:37:55;99590.38;;;26.91;39.50
32875;BME280;40468;42.128;24.750;2023-08-24T00:39:27;99596.56;;;26.91;39.73
32875;BME280;40468;42.128;24.750;2023-08-24T00:40:57;99592.91;;;26.92;39.82
32875;BME280;40468;42.128;24.750;2023-08-24T00:42:29;99590.38;;;26.91;39.60
32875;BME280;40468;42.128;24.750;2023-08-24T00:43:59;99596.09;;;26.88;40.04
32875;BME280;40468;42.128;24.750;2023-08-24T00:45:32;99587.31;;;26.79;39.88
32875;BME280;40468;42.128;24.750;2023-08-24T00:47:03;99588.22;;;26.71;40.43
32875;BME280;40468;42.128;24.750;2023-08-24T00:48:34;99591.97;;;26.62;40.28
32875;BME280;40468;42.128;24.750;2023-08-24T00:50:05;99581.16;;;26.55;40.38
32875;BME280;40468;42.128;24.750;2023-08-24T00:51:38;99592.53;;;26.49;40.62
32875;BME280;40468;42.128;24.750;2023-08-24T00:53:11;99590.19;;;26.46;40.54
32875;BME280;40468;42.128;24.750;2023-08-24T00:54:43;99589.88;;;26.41;40.63
32875;BME280;40468;42.128;24.750;2023-08-24T00:56:13;99590.75;;;26.42;40.88
32875;BME280;40468;42.128;24.750;2023-08-24T00:57:45;99596.56;;;26.45;40.47
32875;BME280;40468;42.128;24.750;2023-08-24T00:59:16;99591.88;;;26.47;40.25
32875;BME280;40468;42.128;24.750;2023-08-24T01:00:47;99588.88;;;26.50;40.67
32875;BME280;40468;42.128;24.750;2023-08-24T01:02:19;99586.00;;;26.52;40.18
32875;BME280;40468;42.128;24.750;2023-08-24T01:03:50;99588.53;;;26.53;40.15
32875;BME280;40468;42.128;24.750;2023-08-24T01:05:21;99581.16;;;26.55;40.33
32875;BME280;40468;42.128;24.750;2023-08-24T01:06:52;99575.81;;;26.55;40.25
32875;BME280;40468;42.128;24.750;2023-08-24T01:08:24;99578.66;;;26.54;40.14
32875;BME280;40468;42.128;24.750;2023-08-24T01:09:56;99579.03;;;26.51;40.14
32875;BME280;40468;42.128;24.750;2023-08-24T01:11:29;99579.50;;;26.46;40.52
32875;BME280;40468;42.128;24.750;2023-08-24T01:13:07;99582.53;;;26.43;40.35
32875;BME280;40468;42.128;24.750;2023-08-24T01:14:39;99585.19;;;26.43;40.39
32875;BME280;40468;42.128;24.750;2023-08-24T01:16:13;99586.84;;;26.44;40.10
32875;BME280;40468;42.128;24.750;2023-08-24T01:17:45;99590.38;;;26.45;40.46
32875;BME280;40468;42.128;24.750;2023-08-24T01:19:21;99594.88;;;26.44;40.06
32875;BME280;40468;42.128;24.750;2023-08-24T01:20:55;99595.06;;;26.43;40.22
32875;BME280;40468;42.128;24.750;2023-08-24T01:22:31;99591.38;;;26.44;40.41
32875;BME280;40468;42.128;24.750;2023-08-24T01:24:09;99586.03;;;26.44;40.05
32875;BME280;40468;42.128;24.750;2023-08-24T01:25:43;99586.22;;;26.42;40.40
32875;BME280;40468;42.128;24.750;2023-08-24T01:27:17;99576.25;;;26.36;40.33
32875;BME280;40468;42.128;24.750;2023-08-24T01:28:50;99573.16;;;26.24;41.07
32875;BME280;40468;42.128;24.750;2023-08-24T01:30:22;99576.22;;;26.13;41.19
32875;BME280;40468;42.128;24.750;2023-08-24T01:31:52;99575.44;;;26.04;41.70
32875;BME280;40468;42.128;24.750;2023-08-24T01:33:24;99578.59;;;26.00;41.80
32875;BME280;40468;42.128;24.750;2023-08-24T01:34:55;99585.16;;;25.97;41.38
32875;BME280;40468;42.128;24.750;2023-08-24T01:36:26;99582.47;;;25.97;41.56
32875;BME280;40468;42.128;24.750;2023-08-24T01:37:57;99571.81;;;25.97;41.71
32875;BME280;40468;42.128;24.750;2023-08-24T01:39:35;99577.63;;;26.01;41.29
32875;BME280;40468;42.128;24.750;2023-08-24T01:41:09;99576.44;;;26.03;41.41
32875;BME280;40468;42.128;24.750;2023-08-24T01:42:45;99578.75;;;26.06;41.07
32875;BME280;40468;42.128;24.750;2023-08-24T01:44:19;99580.25;;;26.09;41.36
32875;BME280;40468;42.128;24.750;2023-08-24T01:45:52;99579.03;;;26.12;41.13
32875;BME280;40468;42.128;24.750;2023-08-24T01:47:25;99571.69;;;26.14;41.15
32875;BME280;40468;42.128;24.750;2023-08-24T01:48:57;99575.03;;;26.16;41.17
32875;BME280;40468;42.128;24.750;2023-08-24T01:50:29;99572.53;;;26.14;41.19
32875;BME280;40468;42.128;24.750;2023-08-24T01:52:01;99572.41;;;26.07;41.19
32875;BME280;40468;42.128;24.750;2023-08-24T01:53:34;99571.13;;;25.95;41.49
32875;BME280;40468;42.128;24.750;2023-08-24T01:55:05;99579.16;;;25.87;41.81
32875;BME280;40468;42.128;24.750;2023-08-24T01:56:37;99574.50;;;25.81;42.04
32875;BME280;40468;42.128;24.750;2023-08-24T01:58:09;99577.84;;;25.75;42.30
32875;BME280;40468;42.128;24.750;2023-08-24T01:59:40;99581.69;;;25.72;42.04
32875;BME280;40468;42.128;24.750;2023-08-24T02:01:11;99570.88;;;25.74;41.97
32875;BME280;40468;42.128;24.750;2023-08-24T02:02:43;99568.84;;;25.76;42.07
32875;BME280;40468;42.128;24.750;2023-08-24T02:04:14;99573.84;;;25.79;42.02
32875;BME280;40468;42.128;24.750;2023-08-24T02:05:46;99569.16;;;25.81;41.62
32875;BME280;40468;42.128;24.750;2023-08-24T02:07:16;99568.50;;;25.79;41.88
32875;BME280;40468;42.128;24.750;2023-08-24T02:08:48;99576.84;;;25.76;42.27
32875;BME280;40468;42.128;24.750;2023-08-24T02:10:19;99579.03;;;25.72;42.28
32875;BME280;40468;42.128;24.750;2023-08-24T02:11:50;99574.38;;;25.66;42.13
32875;BME280;40468;42.128;24.750;2023-08-24T02:13:23;99581.25;;;25.60;42.62
32875;BME280;40468;42.128;24.750;2023-08-24T02:14:55;99569.59;;;25.53;43.00
32875;BME280;40468;42.128;24.750;2023-08-24T02:16:25;99565.78;;;25.48;42.73
32875;BME280;40468;42.128;24.750;2023-08-24T02:17:57;99562.44;;;25.46;42.91
32875;BME280;40468;42.128;24.750;2023-08-24T02:19:27;99568.47;;;25.39;43.51
32875;BME280;40468;42.128;24.750;2023-08-24T02:20:59;99566.00;;;25.30;43.71
32875;BME280;40468;42.128;24.750;2023-08-24T02:22:29;99565.00;;;25.23;44.05
32875;BME280;40468;42.128;24.750;2023-08-24T02:24:01;99576.00;;;25.19;43.81
32875;BME280;40468;42.128;24.750;2023-08-24T02:25:33;99578.03;;;25.17;43.73
32875;BME280;40468;42.128;24.750;2023-08-24T02:27:03;99572.50;;;25.19;43.89
32875;BME280;40468;42.128;24.750;2023-08-24T02:28:37;99573.00;;;25.23;43.68
32875;BME280;40468;42.128;24.750;2023-08-24T02:30:08;99564.34;;;25.21;43.92
32875;BME280;40468;42.128;24.750;2023-08-24T02:31:39;99568.19;;;25.18;43.74
32875;BME280;40468;42.128;24.750;2023-08-24T02:33:11;99577.34;;;25.15;43.97
32875;BME280;40468;42.128;24.750;2023-08-24T02:34:42;99578.66;;;25.11;44.19
32875;BME280;40468;42.128;24.750;2023-08-24T02:36:13;99574.16;;;25.04;44.57
32875;BME280;40468;42.128;24.750;2023-08-24T02:37:44;99572.31;;;24.96;44.81
32875;BME280;40468;42.128;24.750;2023-08-24T02:39:15;99574.34;;;24.94;44.44
32875;BME280;40468;42.128;24.750;2023-08-24T02:40:46;99584.00;;;24.95;44.24
32875;BME280;40468;42.128;24.750;2023-08-24T02:42:17;99581.00;;;24.98;44.29
32875;BME280;40468;42.128;24.750;2023-08-24T02:43:50;99587.97;;;24.99;44.18
32875;BME280;40468;42.128;24.750;2023-08-24T02:45:20;99589.47;;;25.02;44.09
32875;BME280;40468;42.128;24.750;2023-08-24T02:46:53;99584.97;;;25.02;44.30
32875;BME280;40468;42.128;24.750;2023-08-24T02:48:25;99583.16;;;25.03;44.19
32875;BME280;40468;42.128;24.750;2023-08-24T02:49:55;99584.31;;;25.00;44.00
32875;BME280;40468;42.128;24.750;2023-08-24T02:51:27;99577.31;;;24.99;44.05
32875;BME280;40468;42.128;24.750;2023-08-24T02:52:58;99577.66;;;24.96;44.38
32875;BME280;40468;42.128;24.750;2023-08-24T02:54:31;99573.81;;;24.90;44.28
32875;BME280;40468;42.128;24.750;2023-08-24T02:56:02;99573.66;;;24.84;44.81
32875;BME280;40468;42.128;24.750;2023-08-24T02:57:34;99568.66;;;24.81;44.51
32875;BME280;40468;42.128;24.750;2023-08-24T02:59:06;99573.00;;;24.73;45.07
32875;BME280;40468;42.128;24.750;2023-08-24T03:00:38;99569.19;;;24.68;45.00
32875;BME280;40468;42.128;24.750;2023-08-24T03:02:09;99571.00;;;24.67;44.82
32875;BME280;40468;42.128;24.750;2023-08-24T03:03:40;99567.53;;;24.67;44.76
32875;BME280;40468;42.128;24.750;2023-08-24T03:05:11;99567.19;;;24.70;44.71
32875;BME280;40468;42.128;24.750;2023-08-24T03:06:43;99570.00;;;24.68;44.88
32875;BME280;40468;42.128;24.750;2023-08-24T03:08:13;99574.66;;;24.66;44.82
32875;BME280;40468;42.128;24.750;2023-08-24T03:09:45;99573.81;;;24.66;44.96
32875;BME280;40468;42.128;24.750;2023-08-24T03:11:15;99576.16;;;24.69;44.53
32875;BME280;40468;42.128;24.750;2023-08-24T03:12:47;99573.50;;;24.69;44.79
32875;BME280;40468;42.128;24.750;2023-08-24T03:14:19;99575.00;;;24.71;44.44
32875;BME280;40468;42.128;24.750;2023-08-24T03:15:51;99580.81;;;24.75;44.64
32875;BME280;40468;42.128;24.750;2023-08-24T03:17:22;99578.84;;;24.77;44.29
32875;BME280;40468;42.128;24.750;2023-08-24T03:18:54;99587.50;;;24.79;44.56
32875;BME280;40468;42.128;24.750;2023-08-24T03:20:24;99581.31;;;24.79;44.20
32875;BME280;40468;42.128;24.750;2023-08-24T03:21:56;99581.31;;;24.79;44.09
32875;BME280;40468;42.128;24.750;2023-08-24T03:23:27;99584.66;;;24.81;44.07
32875;BME280;40468;42.128;24.750;2023-08-24T03:24:59;99580.16;;;24.81;44.10
32875;BME280;40468;42.128;24.750;2023-08-24T03:26:29;99584.66;;;24.81;44.23
32875;BME280;40468;42.128;24.750;2023-08-24T03:28:01;99590.16;;;24.79;44.16
32875;BME280;40468;42.128;24.750;2023-08-24T03:29:33;99590.66;;;24.74;44.38
32875;BME280;40468;42.128;24.750;2023-08-24T03:31:06;99586.47;;;24.72;44.31
32875;BME280;40468;42.128;24.750;2023-08-24T03:32:36;99582.50;;;24.68;44.54
32875;BME280;40468;42.128;24.750;2023-08-24T03:34:08;99586.47;;;24.64;44.65
32875;BME280;40468;42.128;24.750;2023-08-24T03:35:39;99591.78;;;24.64;44.73
32875;BME280;40468;42.128;24.750;2023-08-24T03:37:10;99592.47;;;24.66;44.63
32875;BME280;40468;42.128;24.750;2023-08-24T03:38:41;99593.97;;;24.68;44.52
32875;BME280;40468;42.128;24.750;2023-08-24T03:40:13;99600.63;;;24.72;44.15
32875;BME280;40468;42.128;24.750;2023-08-24T03:41:43;99594.97;;;24.75;44.26
32875;BME280;40468;42.128;24.750;2023-08-24T03:43:15;99610.47;;;24.80;43.98
32875;BME280;40468;42.128;24.750;2023-08-24T03:44:47;99601.63;;;24.80;44.24
32875;BME280;40468;42.128;24.750;2023-08-24T03:46:18;99603.47;;;24.79;44.15
32875;BME280;40468;42.128;24.750;2023-08-24T03:47:49;99613.28;;;24.79;43.95
32875;BME280;40468;42.128;24.750;2023-08-24T03:49:21;99614.94;;;24.80;44.11
32875;BME280;40468;42.128;24.750;2023-08-24T03:50:53;99615.63;;;24.82;43.90
32875;BME280;40468;42.128;24.750;2023-08-24T03:52:25;99614.78;;;24.81;44.24
32875;BME280;40468;42.128;24.750;2023-08-24T03:53:56;99612.28;;;24.80;44.07
32875;BME280;40468;42.128;24.750;2023-08-24T03:55:27;99612.09;;;24.81;44.07
32875;BME280;40468;42.128;24.750;2023-08-24T03:56:58;99614.63;;;24.83;43.92
32875;BME280;40468;42.128;24.750;2023-08-24T03:58:29;99610.13;;;24.83;43.88
32875;BME280;40468;42.128;24.750;2023-08-24T04:00:01;99616.28;;;24.84;44.00
32875;BME280;40468;42.128;24.750;2023-08-24T04:01:36;99617.44;;;24.81;43.87
32875;BME280;40468;42.128;24.750;2023-08-24T04:03:07;99616.13;;;24.77;44.39
32875;BME280;40468;42.128;24.750;2023-08-24T04:04:38;99616.44;;;24.74;44.37
32875;BME280;40468;42.128;24.750;2023-08-24T04:06:10;99615.63;;;24.73;44.18
32875;BME280;40468;42.128;24.750;2023-08-24T04:07:40;99611.59;;;24.69;44.53
32875;BME280;40468;42.128;24.750;2023-08-24T04:09:12;99611.09;;;24.66;44.33
32875;BME280;40468;42.128;24.750;2023-08-24T04:10:43;99609.44;;;24.65;44.39
32875;BME280;40468;42.128;24.750;2023-08-24T04:12:15;99608.28;;;24.67;44.38
32875;BME280;40468;42.128;24.750;2023-08-24T04:13:46;99608.78;;;24.71;44.38
32875;BME280;40468;42.128;24.750;2023-08-24T04:15:19;99612.94;;;24.73;44.41
32875;BME280;40468;42.128;24.750;2023-08-24T04:16:49;99609.28;;;24.74;44.05
32875;BME280;40468;42.128;24.750;2023-08-24T04:18:22;99612.63;;;24.77;44.37
32875;BME280;40468;42.128;24.750;2023-08-24T04:19:54;99609.63;;;24.80;44.09
32875;BME280;40468;42.128;24.750;2023-08-24T04:21:24;99607.66;;;24.82;44.19
32875;BME280;40468;42.128;24.750;2023-08-24T04:22:56;99610.13;;;24.83;43.83
32875;BME280;40468;42.128;24.750;2023-08-24T04:24:27;99617.97;;;24.85;43.98
32875;BME280;40468;42.128;24.750;2023-08-24T04:25:59;99618.13;;;24.83;44.39
32875;BME280;40468;42.128;24.750;2023-08-24T04:27:29;99623.63;;;24.82;44.31
32875;BME280;40468;42.128;24.750;2023-08-24T04:29:01;99619.13;;;24.82;44.21
32875;BME280;40468;42.128;24.750;2023-08-24T04:30:34;99621.78;;;24.82;44.17
32875;BME280;40468;42.128;24.750;2023-08-24T04:32:05;99614.63;;;24.83;44.48
32875;BME280;40468;42.128;24.750;2023-08-24T04:33:38;99620.63;;;24.85;44.56
32875;BME280;40468;42.128;24.750;2023-08-24T04:35:18;99624.94;;;24.86;44.40
32875;BME280;40468;42.128;24.750;2023-08-24T04:36:48;99624.75;;;24.87;44.58
32875;BME280;40468;42.128;24.750;2023-08-24T04:38:20;99626.44;;;24.88;44.64
32875;BME280;40468;42.128;24.750;2023-08-24T04:39:50;99628.78;;;24.91;44.42
32875;BME280;40468;42.128;24.750;2023-08-24T04:41:22;99619.94;;;24.99;44.25
32875;BME280;40468;42.128;24.750;2023-08-24T04:42:53;99621.94;;;25.05;43.99
32875;BME280;40468;42.128;24.750;2023-08-24T04:44:24;99622.13;;;25.12;44.11
32875;BME280;40468;42.128;24.750;2023-08-24T04:45:56;99627.63;;;25.18;43.76
32875;BME280;40468;42.128;24.750;2023-08-24T04:47:28;99627.97;;;25.24;43.84
32875;BME280;40468;42.128;24.750;2023-08-24T04:48:58;99628.13;;;25.30;43.88
32875;BME280;40468;42.128;24.750;2023-08-24T04:50:30;99628.47;;;25.35;43.49
32875;BME280;40468;42.128;24.750;2023-08-24T04:52:01;99634.28;;;25.39;43.40
32875;BME280;40468;42.128;24.750;2023-08-24T04:53:32;99636.44;;;25.43;43.37
32875;BME280;40468;42.128;24.750;2023-08-24T04:55:03;99637.94;;;25.46;43.43
32875;BME280;40468;42.128;24.750;2023-08-24T04:56:35;99639.59;;;25.47;43.40
32875;BME280;40468;42.128;24.750;2023-08-24T04:58:06;99644.59;;;25.50;43.59
32875;BME280;40468;42.128;24.750;2023-08-24T04:59:38;99642.41;;;25.54;43.35
32875;BME280;40468;42.128;24.750;2023-08-24T05:01:11;99648.09;;;25.59;43.59
32875;BME280;40468;42.128;24.750;2023-08-24T05:02:42;99647.75;;;25.62;43.60
32875;BME280;40468;42.128;24.750;2023-08-24T05:04:14;99647.41;;;25.65;43.33
32875;BME280;40468;42.128;24.750;2023-08-24T05:05:45;99642.56;;;25.69;43.35
32875;BME280;40468;42.128;24.750;2023-08-24T05:07:17;99638.53;;;25.73;43.31
32875;BME280;40468;42.128;24.750;2023-08-24T05:08:49;99638.19;;;25.76;43.07
32875;BME280;40468;42.128;24.750;2023-08-24T05:10:20;99644.34;;;25.76;43.44
32875;BME280;40468;42.128;24.750;2023-08-24T05:11:51;99638.84;;;25.78;43.45
32875;BME280;40468;42.128;24.750;2023-08-24T05:13:23;99644.88;;;25.80;43.04
32875;BME280;40468;42.128;24.750;2023-08-24T05:14:54;99638.41;;;25.82;43.08
32875;BME280;40468;42.128;24.750;2023-08-24T05:16:27;99637.84;;;25.79;43.28
32875;BME280;40468;42.128;24.750;2023-08-24T05:17:58;99638.19;;;25.76;43.61
32875;BME280;40468;42.128;24.750;2023-08-24T05:19:30;99638.38;;;25.74;43.55
32875;BME280;40468;42.128;24.750;2023-08-24T05:21:00;99634.88;;;25.74;44.19
32875;BME280;40468;42.128;24.750;2023-08-24T05:22:32;99637.56;;;25.74;44.05
32875;BME280;40468;42.128;24.750;2023-08-24T05:24:03;99631.88;;;25.77;43.63
32875;BME280;40468;42.128;24.750;2023-08-24T05:25:35;99639.22;;;25.83;44.00
32875;BME280;40468;42.128;24.750;2023-08-24T05:27:07;99636.84;;;25.88;43.82
32875;BME280;40468;42.128;24.750;2023-08-24T05:28:38;99642.34;;;25.95;43.84
32875;BME280;40468;42.128;24.750;2023-08-24T05:30:10;99634.13;;;26.04;43.50
32875;BME280;40468;42.128;24.750;2023-08-24T05:31:43;99637.41;;;26.15;43.74
32875;BME280;40468;42.128;24.750;2023-08-24T05:33:15;99639.34;;;26.29;43.36
32875;BME280;40468;42.128;24.750;2023-08-24T05:34:45;99636.94;;;26.50;42.88
32875;BME280;40468;42.128;24.750;2023-08-24T05:36:17;99639.50;;;26.67;42.66
32875;BME280;40468;42.128;24.750;2023-08-24T05:37:48;99644.59;;;26.76;42.92
32875;BME280;40468;42.128;24.750;2023-08-24T05:39:20;99643.00;;;26.90;42.39
32875;BME280;40468;42.128;24.750;2023-08-24T05:40:50;99645.91;;;27.04;42.32
32875;BME280;40468;42.128;24.750;2023-08-24T05:42:22;99647.66;;;27.19;42.26
32875;BME280;40468;42.128;24.750;2023-08-24T05:43:52;99649.16;;;27.37;42.31
32875;BME280;40468;42.128;24.750;2023-08-24T05:45:24;99643.00;;;27.51;42.17
32875;BME280;40468;42.128;24.750;2023-08-24T05:46:56;99642.38;;;27.64;42.16
32875;BME280;40468;42.128;24.750;2023-08-24T05:48:28;99633.91;;;27.75;41.96
32875;BME280;40468;42.128;24.750;2023-08-24T05:49:59;99635.84;;;27.81;41.56
32875;BME280;40468;42.128;24.750;2023-08-24T05:51:31;99634.38;;;27.94;41.55
32875;BME280;40468;42.128;24.750;2023-08-24T05:53:01;99637.41;;;28.05;41.62
32875;BME280;40468;42.128;24.750;2023-08-24T05:54:35;99635.25;;;28.16;41.27
32875;BME280;40468;42.128;24.750;2023-08-24T05:56:06;99633.31;;;28.24;41.26
32875;BME280;40468;42.128;24.750;2023-08-24T05:57:38;99625.75;;;28.28;41.19
32875;BME280;40468;42.128;24.750;2023-08-24T05:59:09;99630.91;;;28.29;41.44
32875;BME280;40468;42.128;24.750;2023-08-24T06:00:40;99643.91;;;28.32;40.98
32875;BME280;40468;42.128;24.750;2023-08-24T06:02:14;99635.72;;;28.34;41.33
32875;BME280;40468;42.128;24.750;2023-08-24T06:03:44;99638.84;;;28.38;41.28
32875;BME280;40468;42.128;24.750;2023-08-24T06:05:16;99642.63;;;28.43;41.00
32875;BME280;40468;42.128;24.750;2023-08-24T06:06:48;99635.50;;;28.50;40.68
32875;BME280;40468;42.128;24.750;2023-08-24T06:08:20;99641.00;;;28.64;40.76
32875;BME280;40468;42.128;24.750;2023-08-24T06:09:50;99645.28;;;28.79;40.56
32875;BME280;40468;42.128;24.750;2023-08-24T06:11:23;99645.88;;;28.96;40.39
32875;BME280;40468;42.128;24.750;2023-08-24T06:12:55;99645.44;;;29.14;40.41
32875;BME280;40468;42.128;24.750;2023-08-24T06:14:27;99640.81;;;29.30;40.09
32875;BME280;40468;42.128;24.750;2023-08-24T06:15:58;99637.38;;;29.42;40.02
32875;BME280;40468;42.128;24.750;2023-08-24T06:17:31;99638.31;;;29.56;39.72
32875;BME280;40468;42.128;24.750;2023-08-24T06:19:01;99636.75;;;29.68;39.55
32875;BME280;40468;42.128;24.750;2023-08-24T06:20:33;99629.81;;;29.81;39.58
32875;BME280;40468;42.128;24.750;2023-08-24T06:22:05;99629.47;;;29.90;39.26
32875;BME280;40468;42.128;24.750;2023-08-24T06:23:36;99628.84;;;29.95;38.86
32875;BME280;40468;42.128;24.750;2023-08-24T06:25:10;99626.41;;;30.00;38.66
32875;BME280;40468;42.128;24.750;2023-08-24T06:26:40;99630.75;;;30.08;38.82
32875;BME280;40468;42.128;24.750;2023-08-24T06:28:12;99630.25;;;30.26;38.76
32875;BME280;40468;42.128;24.750;2023-08-24T06:29:43;99634.84;;;30.45;38.47
32875;BME280;40468;42.128;24.750;2023-08-24T06:31:15;99630.97;;;30.61;37.90
32875;BME280;40468;42.128;24.750;2023-08-24T06:32:48;99627.88;;;30.64;38.14
32875;BME280;40468;42.128;24.750;2023-08-24T06:34:19;99637.81;;;30.70;37.65
32875;BME280;40468;42.128;24.750;2023-08-24T06:35:50;99642.16;;;30.71;37.81
32875;BME280;40468;42.128;24.750;2023-08-24T06:37:22;99644.03;;;30.71;37.54
32875;BME280;40468;42.128;24.750;2023-08-24T06:38:52;99650.81;;;30.67;37.70
32875;BME280;40468;42.128;24.750;2023-08-24T06:40:24;99645.84;;;30.64;37.30
32875;BME280;40468;42.128;24.750;2023-08-24T06:41:56;99644.38;;;30.54;37.82
32875;BME280;40468;42.128;24.750;2023-08-24T06:43:26;99646.03;;;30.49;37.69
32875;BME280;40468;42.128;24.750;2023-08-24T06:44:58;99642.94;;;30.45;37.38
32875;BME280;40468;42.128;24.750;2023-08-24T06:46:30;99652.63;;;30.40;37.86
32875;BME280;40468;42.128;24.750;2023-08-24T06:48:03;99652.59;;;30.33;37.76
32875;BME280;40468;42.128;24.750;2023-08-24T06:49:35;99664.16;;;30.27;37.42
32875;BME280;40468;42.128;24.750;2023-08-24T06:51:06;99667.16;;;30.17;37.40
32875;BME280;40468;42.128;24.750;2023-08-24T06:52:37;99671.25;;;30.06;37.85
32875;BME280;40468;42.128;24.750;2023-08-24T06:54:08;99694.75;;;29.98;37.62
32875;BME280;40468;42.128;24.750;2023-08-24T06:55:40;99692.03;;;29.91;37.99
32875;BME280;40468;42.128;24.750;2023-08-24T06:57:10;99703.75;;;29.83;37.78
32875;BME280;40468;42.128;24.750;2023-08-24T06:58:42;99706.53;;;29.68;38.09
32875;BME280;40468;42.128;24.750;2023-08-24T07:00:14;99718.16;;;29.54;38.30
32875;BME280;40468;42.128;24.750;2023-08-24T07:01:45;99720.16;;;29.45;38.17
32875;BME280;40468;42.128;24.750;2023-08-24T07:03:19;99723.63;;;29.39;38.35
32875;BME280;40468;42.128;24.750;2023-08-24T07:04:51;99727.28;;;29.32;38.71
32875;BME280;40468;42.128;24.750;2023-08-24T07:06:22;99725.66;;;29.16;39.92
32875;BME280;40468;42.128;24.750;2023-08-24T07:07:55;99719.06;;;28.97;40.79
32875;BME280;40468;42.128;24.750;2023-08-24T07:09:25;99705.88;;;28.80;41.70
32875;BME280;40468;42.128;24.750;2023-08-24T07:10:57;99703.00;;;28.61;42.29
32875;BME280;40468;42.128;24.750;2023-08-24T07:12:28;99695.72;;;28.40;43.14
32875;BME280;40468;42.128;24.750;2023-08-24T07:14:00;99681.25;;;28.19;43.87
32875;BME280;40468;42.128;24.750;2023-08-24T07:15:31;99664.19;;;27.90;45.31
32875;BME280;40468;42.128;24.750;2023-08-24T07:17:05;99660.72;;;27.67;46.75
32875;BME280;40468;42.128;24.750;2023-08-24T07:18:38;99659.59;;;27.47;47.80
32875;BME280;40468;42.128;24.750;2023-08-24T07:20:09;99656.72;;;27.33;48.54
32875;BME280;40468;42.128;24.750;2023-08-24T07:21:42;99659.41;;;27.33;49.13
32875;BME280;40468;42.128;24.750;2023-08-24T07:23:13;99657.72;;;27.32;49.83
32875;BME280;40468;42.128;24.750;2023-08-24T07:24:44;99657.34;;;27.35;50.09
32875;BME280;40468;42.128;24.750;2023-08-24T07:26:16;99657.34;;;27.35;50.58
32875;BME280;40468;42.128;24.750;2023-08-24T07:27:47;99650.88;;;27.30;51.15
32875;BME280;40468;42.128;24.750;2023-08-24T07:29:18;99649.75;;;27.24;51.56
32875;BME280;40468;42.128;24.750;2023-08-24T07:30:50;99645.13;;;27.18;51.52
32875;BME280;40468;42.128;24.750;2023-08-24T07:32:23;99658.81;;;27.23;51.83
32875;BME280;40468;42.128;24.750;2023-08-24T07:33:56;99656.06;;;27.31;51.75
32875;BME280;40468;42.128;24.750;2023-08-24T07:35:27;99661.34;;;27.39;51.42
32875;BME280;40468;42.128;24.750;2023-08-24T07:36:59;99662.28;;;27.47;51.42
32875;BME280;40468;42.128;24.750;2023-08-24T07:38:29;99682.63;;;27.48;51.58
32875;BME280;40468;42.128;24.750;2023-08-24T07:40:01;99669.94;;;27.50;51.60
32875;BME280;40468;42.128;24.750;2023-08-24T07:41:32;99665.13;;;27.45;51.84
32875;BME280;40468;42.128;24.750;2023-08-24T07:43:03;99671.03;;;27.40;51.37
32875;BME280;40468;42.128;24.750;2023-08-24T07:44:34;99670.91;;;27.34;51.53
32875;BME280;40468;42.128;24.750;2023-08-24T07:46:06;99664.91;;;27.32;51.45
32875;BME280;40468;42.128;24.750;2023-08-24T07:47:36;99666.75;;;27.31;51.55
32875;BME280;40468;42.128;24.750;2023-08-24T07:49:10;99667.06;;;27.36;51.66
32875;BME280;40468;42.128;24.750;2023-08-24T07:50:40;99669.00;;;27.42;51.22
32875;BME280;40468;42.128;24.750;2023-08-24T07:52:12;99672.81;;;27.48;51.33
32875;BME280;40468;42.128;24.750;2023-08-24T07:53:43;99673.63;;;27.49;51.70
32875;BME280;40468;42.128;24.750;2023-08-24T07:55:15;99668.38;;;27.70;51.08
32875;BME280;40468;42.128;24.750;2023-08-24T07:56:46;99671.75;;;28.02;51.14
32875;BME280;40468;42.128;24.750;2023-08-24T07:58:18;99669.97;;;28.24;50.26
32875;BME280;40468;42.128;24.750;2023-08-24T07:59:48;99669.88;;;28.47;50.00